Time;durP1;ratioP1;P1;durP2;ratioP2;P2;SDS_P1;SDS_P2;PMS_P1;PMS_P2;Temp;Humidity;BMP_temperature;BMP_pressure;BME280_temperature;BME280_humidity;BME280_pressure;Samples;Min_cycle;Max_cycle;Signal;HPM_P1;HPM_P2
2022/11/10 00:01:48;;;;;;;;;;;13.90;93.50;;;;;;5071183;28;19908;-54
2022/11/10 00:04:13;;;;;;;;;;;13.90;93.60;;;;;;5071446;28;19909;-56
2022/11/10 00:06:43;;;;;;;;;;;13.90;93.60;;;;;;5069949;28;20005;-54
2022/11/10 00:09:09;;;;;;;;;;;13.90;94.10;;;;;;5070026;28;19915;-56
2022/11/10 00:11:34;;;;;;;;;;;13.80;94.40;;;;;;5071730;28;19908;-52
2022/11/10 00:16:59;;;;;;;;;;;13.80;94.40;;;;;;5071489;28;19915;-53
2022/11/10 00:19:27;;;;;;;;;;;13.80;94.20;;;;;;5069844;28;19908;-53
2022/11/10 00:21:53;;;;;;;;;;;13.70;94.40;;;;;;5071327;28;20392;-53
2022/11/10 00:24:19;;;;;;;;;;;13.70;94.30;;;;;;5071583;28;19905;-53
2022/11/10 00:26:45;;;;;;;;;;;13.60;94.40;;;;;;5071466;28;19908;-52
2022/11/10 00:29:10;;;;;;;;;;;13.60;94.40;;;;;;5071058;28;20022;-53
2022/11/10 00:31:36;;;;;;;;;;;13.70;94.50;;;;;;5071405;28;19915;-53
2022/11/10 00:34:02;;;;;;;;;;;13.70;94.40;;;;;;5070910;28;19917;-56
2022/11/10 00:36:28;;;;;;;;;;;13.80;94.20;;;;;;5074787;28;19953;-53
2022/11/10 00:38:53;;;;;;;;;;;13.80;94.20;;;;;;5074934;28;19916;-52
2022/11/10 00:41:19;;;;;;;;;;;13.90;94.10;;;;;;5074831;28;19908;-57
2022/11/10 00:43:45;;;;;;;;;;;13.90;93.90;;;;;;5075063;28;19917;-52
2022/11/10 00:46:10;;;;;;;;;;;13.90;93.80;;;;;;5075009;28;19904;-56
2022/11/10 00:48:36;;;;;;;;;;;13.90;93.80;;;;;;5074675;28;19910;-54
2022/11/10 00:51:01;;;;;;;;;;;13.90;93.80;;;;;;5074994;28;20283;-52
2022/11/10 00:53:27;;;;;;;;;;;14.00;93.80;;;;;;5075318;28;20396;-52
2022/11/10 00:55:53;;;;;;;;;;;13.90;93.80;;;;;;5074568;28;19959;-55
2022/11/10 00:58:18;;;;;;;;;;;13.90;93.80;;;;;;5074495;28;19935;-53
2022/11/10 01:00:44;;;;;;;;;;;13.90;93.80;;;;;;5074665;28;19940;-53
2022/11/10 01:03:14;;;;;;;;;;;13.90;94.00;;;;;;5074475;28;19919;-54
2022/11/10 01:05:39;;;;;;;;;;;13.90;94.00;;;;;;5074316;28;19908;-52
2022/11/10 01:08:05;;;;;;;;;;;13.90;94.10;;;;;;5072983;28;19915;-55
2022/11/10 01:10:31;;;;;;;;;;;13.90;94.10;;;;;;5074213;28;19915;-56
2022/11/10 01:12:56;;;;;;;;;;;13.80;94.20;;;;;;5074458;28;19909;-56
2022/11/10 01:15:22;;;;;;;;;;;13.80;94.30;;;;;;5074742;28;19911;-55
2022/11/10 01:17:47;;;;;;;;;;;13.90;94.20;;;;;;5074365;28;20270;-53
2022/11/10 01:20:13;;;;;;;;;;;13.90;94.10;;;;;;5074144;28;19965;-54
2022/11/10 01:22:39;;;;;;;;;;;13.90;94.00;;;;;;5074256;28;19912;-53
2022/11/10 01:25:05;;;;;;;;;;;14.00;94.00;;;;;;5073938;28;20323;-53
2022/11/10 01:27:31;;;;;;;;;;;14.00;93.90;;;;;;5074094;28;20434;-52
2022/11/10 01:29:56;;;;;;;;;;;13.90;93.90;;;;;;5074142;28;19912;-53
2022/11/10 01:32:22;;;;;;;;;;;13.90;94.00;;;;;;5073801;28;19908;-55
2022/11/10 01:34:47;;;;;;;;;;;13.90;94.10;;;;;;5073628;28;19969;-53
2022/11/10 01:37:13;;;;;;;;;;;13.80;94.20;;;;;;5074089;28;19918;-52
2022/11/10 01:39:38;;;;;;;;;;;13.80;94.50;;;;;;5073916;28;19908;-53
2022/11/10 01:42:04;;;;;;;;;;;13.70;94.50;;;;;;5073644;28;19981;-53
2022/11/10 01:44:30;;;;;;;;;;;13.70;94.50;;;;;;5073609;28;19995;-54
2022/11/10 01:46:55;;;;;;;;;;;13.70;94.60;;;;;;5073042;28;19908;-54
2022/11/10 01:49:23;;;;;;;;;;;13.60;94.90;;;;;;5073929;28;20348;-53
2022/11/10 01:52:21;;;;;;;;;;;13.50;94.90;;;;;;5073828;28;19909;-52
2022/11/10 01:54:48;;;;;;;;;;;13.60;94.90;;;;;;5028745;28;19973;-54
2022/11/10 01:57:14;;;;;;;;;;;13.60;94.90;;;;;;5073550;28;19916;-53
2022/11/10 01:59:43;;;;;;;;;;;13.60;94.90;;;;;;5073322;28;20273;-54
2022/11/10 02:02:25;;;;;;;;;;;13.50;95.20;;;;;;5071889;28;19913;-53
2022/11/10 02:04:51;;;;;;;;;;;13.50;95.10;;;;;;5072098;28;19908;-53
2022/11/10 02:07:18;;;;;;;;;;;13.50;94.90;;;;;;5073589;28;19904;-52
2022/11/10 02:09:43;;;;;;;;;;;13.60;94.80;;;;;;5073362;28;19908;-52
2022/11/10 02:12:09;;;;;;;;;;;13.60;94.90;;;;;;5073303;28;19908;-53
2022/11/10 02:14:35;;;;;;;;;;;13.50;94.90;;;;;;5073100;28;19915;-54
2022/11/10 02:17:01;;;;;;;;;;;13.50;94.50;;;;;;5073166;28;19904;-55
2022/11/10 02:19:26;;;;;;;;;;;13.50;94.50;;;;;;5072858;28;19908;-52
2022/11/10 02:21:52;;;;;;;;;;;13.50;94.70;;;;;;5073183;28;19953;-55
2022/11/10 02:24:18;;;;;;;;;;;13.50;94.70;;;;;;5072859;28;19931;-53
2022/11/10 02:26:52;;;;;;;;;;;13.40;95.10;;;;;;5072528;28;19959;-52
2022/11/10 02:29:18;;;;;;;;;;;13.30;95.30;;;;;;5072728;28;20376;-52
2022/11/10 02:31:44;;;;;;;;;;;13.20;95.30;;;;;;5073074;28;20206;-53
2022/11/10 02:34:09;;;;;;;;;;;13.20;95.60;;;;;;5073085;28;19904;-54
2022/11/10 02:36:35;;;;;;;;;;;13.20;95.40;;;;;;5072552;28;20357;-53
2022/11/10 02:39:00;;;;;;;;;;;13.30;95.20;;;;;;5072626;28;20046;-54
2022/11/10 02:41:26;;;;;;;;;;;13.30;95.20;;;;;;5072763;28;19908;-52
2022/11/10 02:43:52;;;;;;;;;;;13.30;95.10;;;;;;5072423;28;19955;-55
2022/11/10 02:46:17;;;;;;;;;;;13.30;95.30;;;;;;5072416;28;19962;-52
2022/11/10 02:48:43;;;;;;;;;;;13.20;95.40;;;;;;5072357;28;19916;-53
2022/11/10 02:51:08;;;;;;;;;;;13.20;95.40;;;;;;5072841;28;19908;-52
2022/11/10 02:53:34;;;;;;;;;;;13.20;95.60;;;;;;5072523;28;20223;-52
2022/11/10 02:55:59;;;;;;;;;;;13.30;95.40;;;;;;5071155;28;19958;-52
2022/11/10 02:58:25;;;;;;;;;;;13.30;95.40;;;;;;5071477;28;19952;-54
2022/11/10 03:00:50;;;;;;;;;;;13.30;95.30;;;;;;5071773;28;19909;-54
2022/11/10 03:03:16;;;;;;;;;;;13.30;95.30;;;;;;5071421;28;19912;-54
2022/11/10 03:05:41;;;;;;;;;;;13.30;95.40;;;;;;5072006;28;19909;-56
2022/11/10 03:08:07;;;;;;;;;;;13.20;95.50;;;;;;5072333;28;19905;-52
2022/11/10 03:10:32;;;;;;;;;;;13.10;95.70;;;;;;5072147;28;20043;-52
2022/11/10 03:12:59;;;;;;;;;;;13.10;95.90;;;;;;5071250;28;19915;-53
2022/11/10 03:15:25;;;;;;;;;;;13.10;96.00;;;;;;5072018;28;19908;-53
2022/11/10 03:17:51;;;;;;;;;;;13.00;96.10;;;;;;5072342;28;19908;-53
2022/11/10 03:20:17;;;;;;;;;;;13.10;96.00;;;;;;5072196;28;19909;-55
2022/11/10 03:22:42;;;;;;;;;;;13.10;96.10;;;;;;5071983;28;19912;-52
2022/11/10 03:25:09;;;;;;;;;;;13.10;95.90;;;;;;5071903;28;20391;-56
2022/11/10 03:27:35;;;;;;;;;;;13.10;96.00;;;;;;5071846;28;20005;-53
2022/11/10 03:30:00;;;;;;;;;;;13.00;95.90;;;;;;5071426;28;19999;-55
2022/11/10 03:32:26;;;;;;;;;;;12.90;96.00;;;;;;5071530;28;19908;-55
2022/11/10 03:34:51;;;;;;;;;;;12.90;96.30;;;;;;5070834;28;19966;-57
2022/11/10 03:37:17;;;;;;;;;;;12.80;96.60;;;;;;5071449;28;19923;-56
2022/11/10 03:39:42;;;;;;;;;;;12.80;96.30;;;;;;5070912;28;20296;-55
2022/11/10 03:42:08;;;;;;;;;;;12.80;96.30;;;;;;5070929;28;19916;-56
2022/11/10 03:44:34;;;;;;;;;;;12.80;96.50;;;;;;5071716;28;19918;-57
2022/11/10 03:47:01;;;;;;;;;;;12.80;96.30;;;;;;5069831;28;19915;-56
2022/11/10 03:49:27;;;;;;;;;;;12.80;96.10;;;;;;5072086;28;19912;-56
2022/11/10 03:51:53;;;;;;;;;;;12.80;96.30;;;;;;5071153;28;19962;-55
2022/11/10 03:54:18;;;;;;;;;;;12.90;96.20;;;;;;5071715;28;19912;-56
2022/11/10 03:56:44;;;;;;;;;;;12.90;96.00;;;;;;5071740;28;19961;-56
2022/11/10 03:59:09;;;;;;;;;;;13.00;95.70;;;;;;5071227;28;19908;-56
2022/11/10 04:01:35;;;;;;;;;;;12.90;95.90;;;;;;5070288;28;19966;-55
2022/11/10 04:04:00;;;;;;;;;;;12.90;95.90;;;;;;5071363;28;19926;-56
2022/11/10 04:09:10;;;;;;;;;;;12.90;96.10;;;;;;5070738;28;19915;-57
2022/11/10 04:17:04;;;;;;;;;;;12.80;96.10;;;;;;5074155;28;20363;-54
2022/11/10 04:19:29;;;;;;;;;;;12.70;96.40;;;;;;5075379;28;19904;-56
2022/11/10 04:21:55;;;;;;;;;;;12.70;96.70;;;;;;5075356;28;19905;-56
2022/11/10 04:24:21;;;;;;;;;;;12.70;96.50;;;;;;5075081;28;19916;-56
2022/11/10 04:26:47;;;;;;;;;;;12.80;96.50;;;;;;5075560;28;19904;-57
2022/11/10 04:29:14;;;;;;;;;;;12.80;96.40;;;;;;5075038;28;19916;-53
2022/11/10 04:31:40;;;;;;;;;;;12.80;96.80;;;;;;5074892;28;19914;-57
2022/11/10 04:34:07;;;;;;;;;;;12.80;96.60;;;;;;5074952;28;20007;-56
2022/11/10 04:36:33;;;;;;;;;;;12.90;96.40;;;;;;5075025;28;20262;-54
2022/11/10 04:38:59;;;;;;;;;;;12.90;96.30;;;;;;5073151;28;19909;-56
2022/11/10 04:41:25;;;;;;;;;;;12.90;96.10;;;;;;5074788;28;19904;-57
2022/11/10 04:43:51;;;;;;;;;;;12.90;96.20;;;;;;5071772;28;19912;-55
2022/11/10 04:46:37;;;;;;;;;;;12.90;96.10;;;;;;5075342;28;19911;-53
2022/11/10 04:49:04;;;;;;;;;;;12.90;96.40;;;;;;5073703;28;19962;-56
2022/11/10 04:51:30;;;;;;;;;;;12.80;96.30;;;;;;5074599;28;19994;-54
2022/11/10 04:53:56;;;;;;;;;;;12.90;96.20;;;;;;5074821;28;19908;-54
2022/11/10 04:56:22;;;;;;;;;;;13.00;96.00;;;;;;5074871;28;19905;-56
2022/11/10 04:58:48;;;;;;;;;;;13.00;95.90;;;;;;5074424;28;20281;-54
2022/11/10 05:01:18;;;;;;;;;;;13.00;95.90;;;;;;5068067;28;19921;-55
2022/11/10 05:03:45;;;;;;;;;;;13.00;96.10;;;;;;5066328;28;20430;-52
2022/11/10 05:06:10;;;;;;;;;;;13.00;95.80;;;;;;5074767;28;19904;-56
2022/11/10 05:08:37;;;;;;;;;;;13.10;95.80;;;;;;5073393;28;19949;-57
2022/11/10 05:11:02;;;;;;;;;;;13.10;95.70;;;;;;5074707;28;19911;-52
2022/11/10 05:13:28;;;;;;;;;;;13.00;95.80;;;;;;5074616;28;19979;-52
2022/11/10 05:15:54;;;;;;;;;;;13.00;95.90;;;;;;5074589;28;19915;-55
2022/11/10 05:18:19;;;;;;;;;;;12.90;95.90;;;;;;5074443;28;19912;-56
2022/11/10 05:20:45;;;;;;;;;;;12.90;95.90;;;;;;5073108;28;20003;-56
2022/11/10 05:25:55;;;;;;;;;;;13.00;95.70;;;;;;5074873;28;19911;-54
2022/11/10 05:28:20;;;;;;;;;;;13.10;95.70;;;;;;5074327;28;19904;-52
2022/11/10 05:30:46;;;;;;;;;;;13.00;95.70;;;;;;5074420;28;20365;-56
2022/11/10 05:33:11;;;;;;;;;;;12.90;96.00;;;;;;5074294;28;19999;-55
2022/11/10 05:35:38;;;;;;;;;;;12.80;96.10;;;;;;5074199;28;19966;-55
2022/11/10 05:38:04;;;;;;;;;;;12.80;96.20;;;;;;5072994;28;19908;-52
2022/11/10 05:40:29;;;;;;;;;;;12.70;96.40;;;;;;5074084;28;19909;-53
2022/11/10 05:42:55;;;;;;;;;;;12.70;96.30;;;;;;5074563;28;19915;-53
2022/11/10 05:45:21;;;;;;;;;;;12.80;96.20;;;;;;5074084;28;20389;-56
2022/11/10 05:47:47;;;;;;;;;;;12.80;96.10;;;;;;5074104;28;19912;-53
2022/11/10 05:50:13;;;;;;;;;;;12.80;96.30;;;;;;5073858;28;19904;-53
2022/11/10 05:52:43;;;;;;;;;;;12.70;96.60;;;;;;5074155;28;19908;-53
2022/11/10 05:55:09;;;;;;;;;;;12.70;96.60;;;;;;5073836;28;20284;-56
2022/11/10 05:57:34;;;;;;;;;;;12.80;96.20;;;;;;5073921;28;19909;-53
2022/11/10 06:00:00;;;;;;;;;;;12.80;96.10;;;;;;5072398;28;19904;-54
2022/11/10 06:02:26;;;;;;;;;;;12.90;95.90;;;;;;5073749;28;19909;-54
2022/11/10 06:04:51;;;;;;;;;;;12.90;95.80;;;;;;5073674;28;20289;-57
2022/11/10 06:07:17;;;;;;;;;;;12.90;96.00;;;;;;5073591;28;19904;-56
2022/11/10 06:09:42;;;;;;;;;;;12.90;96.00;;;;;;5073487;28;19926;-56
2022/11/10 06:12:08;;;;;;;;;;;12.90;95.80;;;;;;5073589;28;19928;-53
2022/11/10 06:14:33;;;;;;;;;;;12.90;95.80;;;;;;5073490;28;20471;-53
2022/11/10 06:16:59;;;;;;;;;;;12.90;95.80;;;;;;5073735;28;19904;-54
2022/11/10 06:19:24;;;;;;;;;;;12.90;95.70;;;;;;5073246;28;19942;-55
2022/11/10 06:21:50;;;;;;;;;;;12.90;95.60;;;;;;5073364;28;20384;-52
2022/11/10 06:24:15;;;;;;;;;;;13.00;95.50;;;;;;5073136;28;20346;-55
2022/11/10 06:26:41;;;;;;;;;;;13.00;95.50;;;;;;5073385;28;20415;-56
2022/11/10 06:29:06;;;;;;;;;;;13.00;95.50;;;;;;5073143;28;20261;-55
2022/11/10 06:31:32;;;;;;;;;;;12.90;95.70;;;;;;5073191;28;20539;-53
2022/11/10 06:33:57;;;;;;;;;;;13.00;95.80;;;;;;5072922;28;20289;-56
2022/11/10 06:36:23;;;;;;;;;;;13.00;95.60;;;;;;5073073;28;20389;-56
2022/11/10 06:38:49;;;;;;;;;;;13.00;95.60;;;;;;5072994;28;19905;-53
2022/11/10 06:41:14;;;;;;;;;;;13.00;95.70;;;;;;5073121;28;19965;-53
2022/11/10 06:43:40;;;;;;;;;;;13.00;95.80;;;;;;5072835;28;19912;-53
2022/11/10 06:46:05;;;;;;;;;;;12.90;96.00;;;;;;5072935;28;19930;-55
2022/11/10 06:48:31;;;;;;;;;;;12.90;96.10;;;;;;5072672;28;19911;-52
2022/11/10 06:50:59;;;;;;;;;;;12.90;96.10;;;;;;5072779;28;20369;-49
2022/11/10 06:53:25;;;;;;;;;;;12.90;96.10;;;;;;5072599;28;19904;-49
2022/11/10 06:55:50;;;;;;;;;;;12.90;96.00;;;;;;5072685;28;19915;-49
2022/11/10 06:58:17;;;;;;;;;;;13.00;95.90;;;;;;5072665;28;19908;-48
2022/11/10 07:00:42;;;;;;;;;;;13.00;95.70;;;;;;5072687;28;19958;-49
2022/11/10 07:03:10;;;;;;;;;;;13.00;95.80;;;;;;5072562;28;19908;-54
2022/11/10 07:05:36;;;;;;;;;;;13.00;95.70;;;;;;5071865;28;19954;-55
2022/11/10 07:08:15;;;;;;;;;;;12.90;96.10;;;;;;5071864;28;20361;-54
2022/11/10 07:10:41;;;;;;;;;;;12.90;96.10;;;;;;5072607;28;19944;-54
2022/11/10 07:13:08;;;;;;;;;;;12.90;96.20;;;;;;5072567;28;19943;-52
2022/11/10 07:15:33;;;;;;;;;;;12.90;96.30;;;;;;5072546;28;20338;-55
2022/11/10 07:18:01;;;;;;;;;;;13.00;96.00;;;;;;5070661;28;20416;-54
2022/11/10 07:20:27;;;;;;;;;;;13.00;95.80;;;;;;5070722;28;19912;-53
2022/11/10 07:22:56;;;;;;;;;;;13.10;95.80;;;;;;5072293;28;19912;-53
2022/11/10 07:25:21;;;;;;;;;;;13.10;95.80;;;;;;5072151;28;19947;-53
2022/11/10 07:27:55;;;;;;;;;;;13.10;95.80;;;;;;5072616;28;19939;-56
2022/11/10 07:30:20;;;;;;;;;;;13.20;95.80;;;;;;5070916;28;19911;-55
2022/11/10 07:32:46;;;;;;;;;;;13.20;95.50;;;;;;5072171;28;20007;-57
2022/11/10 07:35:11;;;;;;;;;;;13.20;95.40;;;;;;5070957;28;20000;-56
2022/11/10 07:37:37;;;;;;;;;;;13.20;95.40;;;;;;5071820;28;19909;-56
2022/11/10 07:40:03;;;;;;;;;;;13.30;95.50;;;;;;5070823;28;19908;-54
2022/11/10 07:42:28;;;;;;;;;;;13.30;95.30;;;;;;5072259;28;19916;-56
2022/11/10 07:44:54;;;;;;;;;;;13.30;95.20;;;;;;5071523;28;19915;-53
2022/11/10 07:47:19;;;;;;;;;;;13.40;95.40;;;;;;5071452;28;19912;-52
2022/11/10 07:49:45;;;;;;;;;;;13.40;95.50;;;;;;5071333;28;19951;-55
2022/11/10 07:52:10;;;;;;;;;;;13.50;95.20;;;;;;5071938;28;19904;-54
2022/11/10 07:54:36;;;;;;;;;;;13.50;95.00;;;;;;5071976;28;19912;-53
2022/11/10 07:57:01;;;;;;;;;;;13.50;94.80;;;;;;5072182;28;19908;-53
2022/11/10 07:59:27;;;;;;;;;;;13.40;95.40;;;;;;5071373;28;19908;-53
2022/11/10 08:01:53;;;;;;;;;;;13.30;95.50;;;;;;5071602;28;19995;-52
2022/11/10 08:04:18;;;;;;;;;;;13.20;96.00;;;;;;5072077;28;19909;-53
2022/11/10 08:06:44;;;;;;;;;;;13.30;95.90;;;;;;5071964;28;19991;-56
2022/11/10 08:09:09;;;;;;;;;;;13.20;96.20;;;;;;5071916;28;19978;-53
2022/11/10 08:11:35;;;;;;;;;;;13.20;96.20;;;;;;5072169;28;19944;-53
2022/11/10 08:14:00;;;;;;;;;;;13.20;96.20;;;;;;5072131;28;20029;-52
2022/11/10 08:16:26;;;;;;;;;;;13.20;96.30;;;;;;5071919;28;20319;-52
2022/11/10 08:18:51;;;;;;;;;;;13.30;96.00;;;;;;5071916;28;20323;-55
2022/11/10 08:21:17;;;;;;;;;;;13.30;96.00;;;;;;5072037;28;20281;-54
2022/11/10 08:23:42;;;;;;;;;;;13.30;95.70;;;;;;5071644;28;19944;-53
2022/11/10 08:26:08;;;;;;;;;;;13.30;95.70;;;;;;5071845;28;20019;-54
2022/11/10 08:28:33;;;;;;;;;;;13.30;96.00;;;;;;5071727;28;20353;-53
2022/11/10 08:31:01;;;;;;;;;;;13.30;95.80;;;;;;5071818;28;20372;-54
2022/11/10 08:33:26;;;;;;;;;;;13.30;95.70;;;;;;5071695;28;19991;-53
2022/11/10 08:35:52;;;;;;;;;;;13.20;96.10;;;;;;5071945;28;19958;-54
2022/11/10 08:38:19;;;;;;;;;;;13.20;96.20;;;;;;5071154;28;19951;-53
2022/11/10 08:40:45;;;;;;;;;;;13.30;96.20;;;;;;5070874;28;19915;-57
2022/11/10 08:43:11;;;;;;;;;;;13.40;96.00;;;;;;5071413;28;19908;-53
2022/11/10 08:45:39;;;;;;;;;;;13.40;95.70;;;;;;5068859;28;19961;-52
2022/11/10 08:48:09;;;;;;;;;;;13.30;96.00;;;;;;5070427;28;19912;-55
2022/11/10 08:50:35;;;;;;;;;;;13.20;96.10;;;;;;5071737;28;20021;-53
2022/11/10 08:53:01;;;;;;;;;;;13.30;96.20;;;;;;5070206;28;20383;-53
2022/11/10 08:55:27;;;;;;;;;;;13.20;96.40;;;;;;5071380;28;20403;-52
2022/11/10 08:57:56;;;;;;;;;;;13.20;96.30;;;;;;5074183;28;19904;-53
2022/11/10 09:00:22;;;;;;;;;;;13.20;96.40;;;;;;5075363;28;19982;-54
2022/11/10 09:02:47;;;;;;;;;;;13.20;96.40;;;;;;5075109;28;19947;-54
2022/11/10 09:05:13;;;;;;;;;;;13.30;96.10;;;;;;5075167;28;19904;-55
2022/11/10 09:07:45;;;;;;;;;;;13.30;96.10;;;;;;5075137;28;19915;-57
2022/11/10 09:10:11;;;;;;;;;;;13.30;96.30;;;;;;5075054;28;20284;-57
2022/11/10 09:12:37;;;;;;;;;;;13.30;96.20;;;;;;5074771;28;19905;-56
2022/11/10 09:15:03;;;;;;;;;;;13.40;96.30;;;;;;5074739;28;19905;-56
2022/11/10 09:17:30;;;;;;;;;;;13.50;96.20;;;;;;5074837;28;20311;-57
2022/11/10 09:19:56;;;;;;;;;;;13.50;95.90;;;;;;5074279;28;19908;-57
2022/11/10 09:22:21;;;;;;;;;;;13.50;96.00;;;;;;5074639;28;19913;-56
2022/11/10 09:24:47;;;;;;;;;;;13.50;95.70;;;;;;5074845;28;19981;-56
2022/11/10 09:27:12;;;;;;;;;;;13.50;96.00;;;;;;5074548;28;19929;-56
2022/11/10 09:29:38;;;;;;;;;;;13.50;96.00;;;;;;5074445;28;19909;-55
2022/11/10 09:32:03;;;;;;;;;;;13.60;96.20;;;;;;5074564;28;19918;-57
2022/11/10 09:34:29;;;;;;;;;;;13.50;96.60;;;;;;5074164;28;19908;-57
2022/11/10 09:36:54;;;;;;;;;;;13.50;96.60;;;;;;5074162;28;19956;-56
2022/11/10 09:39:20;;;;;;;;;;;13.60;96.30;;;;;;5072612;28;20004;-57
2022/11/10 09:41:46;;;;;;;;;;;13.70;95.90;;;;;;5073866;28;19948;-55
2022/11/10 09:44:22;;;;;;;;;;;13.80;95.80;;;;;;5073847;28;19915;-57
2022/11/10 09:46:56;;;;;;;;;;;13.70;95.90;;;;;;5074293;28;19912;-56
2022/11/10 09:49:29;;;;;;;;;;;13.80;95.60;;;;;;5073900;28;19905;-56
2022/11/10 09:51:56;;;;;;;;;;;13.90;95.40;;;;;;5072837;28;20416;-55
2022/11/10 09:54:41;;;;;;;;;;;14.00;95.30;;;;;;5073730;28;19917;-55
2022/11/10 09:57:09;;;;;;;;;;;14.10;95.10;;;;;;5074003;28;20388;-55
2022/11/10 09:59:35;;;;;;;;;;;14.10;95.20;;;;;;5072197;28;19908;-55
2022/11/10 10:02:00;;;;;;;;;;;14.00;95.20;;;;;;5073796;28;19904;-57
2022/11/10 10:04:45;;;;;;;;;;;14.10;95.30;;;;;;5072352;28;19908;-56
2022/11/10 10:07:13;;;;;;;;;;;14.10;95.10;;;;;;5073436;28;20380;-52
2022/11/10 10:09:42;;;;;;;;;;;14.20;95.10;;;;;;5073456;28;19999;-56
2022/11/10 10:12:08;;;;;;;;;;;;;;;;;;5072313;28;19904;-56
2022/11/10 10:14:34;;;;;;;;;;;;;;;;;;5073497;28;19908;-52
2022/11/10 10:17:07;;;;;;;;;;;14.20;94.80;;;;;;5073536;28;19905;-56
2022/11/10 10:19:33;;;;;;;;;;;;;;;;;;5073396;28;20377;-54
2022/11/10 10:21:59;;;;;;;;;;;;;;;;;;5073423;28;19916;-56
2022/11/10 10:24:26;;;;;;;;;;;14.60;93.80;;;;;;5071950;28;19919;-56
2022/11/10 10:26:53;;;;;;;;;;;14.90;93.70;;;;;;5073302;28;20010;-53
2022/11/10 10:29:21;;;;;;;;;;;15.10;94.00;;;;;;5073182;28;19908;-55
2022/11/10 10:31:48;;;;;;;;;;;15.30;93.60;;;;;;5073181;28;19904;-54
2022/11/10 10:34:17;;;;;;;;;;;15.40;93.20;;;;;;5073085;28;20301;-56
2022/11/10 10:36:44;;;;;;;;;;;15.50;93.00;;;;;;5073154;28;19908;-58
2022/11/10 10:39:12;;;;;;;;;;;15.70;92.70;;;;;;5072932;28;19958;-54
2022/11/10 10:41:38;;;;;;;;;;;15.70;92.80;;;;;;5071567;28;20361;-55
2022/11/10 10:44:14;;;;;;;;;;;15.90;92.30;;;;;;5072769;28;19962;-52
2022/11/10 10:46:57;;;;;;;;;;;16.00;91.40;;;;;;5073229;28;19930;-54
2022/11/10 10:49:29;;;;;;;;;;;16.00;91.50;;;;;;5072769;28;20246;-54
2022/11/10 10:52:01;;;;;;;;;;;16.00;91.50;;;;;;5072870;28;19931;-55
2022/11/10 10:54:28;;;;;;;;;;;16.00;91.20;;;;;;5071803;28;19912;-54
2022/11/10 10:57:04;;;;;;;;;;;16.00;91.50;;;;;;5072849;28;19908;-52
2022/11/10 10:59:31;;;;;;;;;;;15.80;91.70;;;;;;5072520;28;19911;-53
2022/11/10 11:01:56;;;;;;;;;;;15.70;92.00;;;;;;5072751;28;19912;-52
2022/11/10 11:04:33;;;;;;;;;;;15.60;92.30;;;;;;5072463;28;20308;-52
2022/11/10 11:07:02;;;;;;;;;;;15.50;92.60;;;;;;5073023;28;19905;-53
2022/11/10 11:09:30;;;;;;;;;;;15.50;92.40;;;;;;5072454;28;19904;-53
2022/11/10 11:12:03;;;;;;;;;;;15.40;92.30;;;;;;5072452;28;19904;-52
2022/11/10 11:14:30;;;;;;;;;;;15.40;92.30;;;;;;5072452;28;19904;-52
2022/11/10 11:16:56;;;;;;;;;;;15.30;92.20;;;;;;5071305;28;19912;-52
2022/11/10 11:19:23;;;;;;;;;;;15.20;92.70;;;;;;5070222;28;19923;-53
2022/11/10 11:22:04;;;;;;;;;;;15.10;93.00;;;;;;5072139;28;19955;-52
2022/11/10 11:24:32;;;;;;;;;;;15.10;92.90;;;;;;5071059;28;19912;-52
2022/11/10 11:27:11;;;;;;;;;;;15.10;92.80;;;;;;5070801;28;20400;-52
2022/11/10 11:29:39;;;;;;;;;;;15.00;93.30;;;;;;5065582;28;19970;-52
2022/11/10 11:32:14;;;;;;;;;;;15.00;93.40;;;;;;5071665;28;19916;-52
2022/11/10 11:34:49;;;;;;;;;;;14.90;93.20;;;;;;5070286;28;19908;-53
2022/11/10 11:37:15;;;;;;;;;;;15.00;93.00;;;;;;5059095;28;20001;-53
2022/11/10 11:39:47;;;;;;;;;;;15.10;92.80;;;;;;5071700;28;19908;-53
2022/11/10 11:42:12;;;;;;;;;;;15.30;92.10;;;;;;5071804;28;19969;-55
2022/11/10 11:44:38;;;;;;;;;;;15.40;92.30;;;;;;5070738;28;19916;-52
2022/11/10 11:47:03;;;;;;;;;;;15.60;92.60;;;;;;5071887;28;20360;-53
2022/11/10 11:49:35;;;;;;;;;;;15.90;91.70;;;;;;5071828;28;19971;-53
2022/11/10 11:52:22;;;;;;;;;;;16.20;91.20;;;;;;5070668;28;19954;-54
2022/11/10 11:54:57;;;;;;;;;;;16.50;90.90;;;;;;5071875;28;19957;-53
2022/11/10 11:57:26;;;;;;;;;;;16.70;90.30;;;;;;5070946;28;19990;-52
2022/11/10 11:59:58;;;;;;;;;;;16.80;89.60;;;;;;5071492;28;19904;-52
2022/11/10 12:02:36;;;;;;;;;;;17.10;88.50;;;;;;5069643;28;20270;-55
2022/11/10 12:05:11;;;;;;;;;;;17.20;87.60;;;;;;5069887;28;19912;-52
2022/11/10 12:07:52;;;;;;;;;;;17.80;86.50;;;;;;5068389;28;19905;-56
2022/11/10 12:10:21;;;;;;;;;;;17.90;85.30;;;;;;5071162;28;19909;-55
2022/11/10 12:13:03;;;;;;;;;;;17.80;84.50;;;;;;5059978;28;19942;-53
2022/11/10 12:15:36;;;;;;;;;;;18.20;81.90;;;;;;5063477;28;19908;-53
2022/11/10 12:18:21;;;;;;;;;;;19.30;78.40;;;;;;5067774;28;19963;-52
2022/11/10 12:20:49;;;;;;;;;;;20.40;75.60;;;;;;5060392;28;19909;-54
2022/11/10 12:23:14;;;;;;;;;;;20.80;70.70;;;;;;5072250;28;19920;-53
2022/11/10 12:25:43;;;;;;;;;;;20.30;73.10;;;;;;5063357;28;19916;-53
2022/11/10 12:28:12;;;;;;;;;;;19.70;73.40;;;;;;5060160;28;20375;-53
2022/11/10 12:30:38;;;;;;;;;;;19.70;74.10;;;;;;5066971;28;19942;-56
2022/11/10 12:33:13;;;;;;;;;;;19.30;75.70;;;;;;5069584;28;19930;-55
2022/11/10 12:35:41;;;;;;;;;;;19.00;77.50;;;;;;5072013;28;20327;-53
2022/11/10 12:38:06;;;;;;;;;;;18.90;78.50;;;;;;5067436;28;19909;-55
2022/11/10 12:40:37;;;;;;;;;;;18.70;78.90;;;;;;5071826;28;19962;-53
2022/11/10 12:43:19;;;;;;;;;;;18.60;80.00;;;;;;5063787;28;19959;-54
2022/11/10 12:45:47;;;;;;;;;;;18.50;81.10;;;;;;5069017;28;19912;-53
2022/11/10 12:48:14;;;;;;;;;;;18.40;81.70;;;;;;5063781;28;20365;-53
2022/11/10 12:50:44;;;;;;;;;;;18.60;78.30;;;;;;5073880;28;20319;-55
2022/11/10 12:53:13;;;;;;;;;;;18.90;79.20;;;;;;5070251;28;19912;-53
2022/11/10 12:55:43;;;;;;;;;;;19.60;74.70;;;;;;5073722;28;19977;-53
2022/11/10 12:58:10;;;;;;;;;;;20.00;75.50;;;;;;5073568;28;20357;-53
2022/11/10 13:00:44;;;;;;;;;;;19.80;74.50;;;;;;5074783;28;19948;-53
2022/11/10 13:03:30;;;;;;;;;;;19.30;75.80;;;;;;5074637;28;19916;-53
2022/11/10 13:05:57;;;;;;;;;;;18.90;77.00;;;;;;5074397;28;19919;-55
2022/11/10 13:08:25;;;;;;;;;;;18.40;80.00;;;;;;5073954;28;19916;-51
2022/11/10 13:10:53;;;;;;;;;;;18.20;80.40;;;;;;5074530;28;19905;-52
2022/11/10 13:13:18;;;;;;;;;;;18.20;80.50;;;;;;5069839;28;19912;-56
2022/11/10 13:15:45;;;;;;;;;;;18.30;81.10;;;;;;5073557;28;20089;-55
2022/11/10 13:18:21;;;;;;;;;;;18.50;80.60;;;;;;5073985;28;20006;-53
2022/11/10 13:20:48;;;;;;;;;;;18.30;79.90;;;;;;5074234;28;20284;-53
2022/11/10 13:23:20;;;;;;;;;;;18.30;80.50;;;;;;5073945;28;20375;-52
2022/11/10 13:25:53;;;;;;;;;;;18.60;81.00;;;;;;5073880;28;19904;-55
2022/11/10 13:28:38;;;;;;;;;;;18.70;78.50;;;;;;5068051;28;20031;-53
2022/11/10 13:31:22;;;;;;;;;;;18.70;78.60;;;;;;5065758;28;20387;-52
2022/11/10 13:34:06;;;;;;;;;;;18.50;79.50;;;;;;5070270;28;20336;-53
2022/11/10 13:36:35;;;;;;;;;;;18.20;80.50;;;;;;5073723;28;19932;-52
2022/11/10 13:39:14;;;;;;;;;;;17.80;81.70;;;;;;5072609;28;19908;-52
2022/11/10 13:41:50;;;;;;;;;;;17.70;83.00;;;;;;5067908;28;19963;-52
2022/11/10 13:44:25;;;;;;;;;;;17.40;84.60;;;;;;5070368;28;19958;-54
2022/11/10 13:46:58;;;;;;;;;;;17.40;85.20;;;;;;5071900;28;20003;-56
2022/11/10 13:49:34;;;;;;;;;;;17.40;85.80;;;;;;5072898;28;19912;-53
2022/11/10 13:52:25;;;;;;;;;;;17.40;86.00;;;;;;5073376;28;19954;-52
2022/11/10 13:54:51;;;;;;;;;;;17.40;85.80;;;;;;5066034;28;19912;-52
2022/11/10 13:57:48;;;;;;;;;;;17.30;85.80;;;;;;5073277;28;19969;-52
2022/11/10 14:00:15;;;;;;;;;;;17.20;86.70;;;;;;5020042;28;19909;-52
2022/11/10 14:02:44;;;;;;;;;;;17.20;87.00;;;;;;5073526;28;19963;-53
2022/11/10 14:05:30;;;;;;;;;;;17.10;87.40;;;;;;5073609;28;20311;-51
2022/11/10 14:08:08;;;;;;;;;;;17.00;88.10;;;;;;5073424;28;19926;-52
2022/11/10 14:10:39;;;;;;;;;;;16.90;88.80;;;;;;5073466;28;19912;-54
2022/11/10 14:13:13;;;;;;;;;;;16.80;89.10;;;;;;5073322;28;19959;-52
2022/11/10 14:15:48;;;;;;;;;;;16.80;89.30;;;;;;5073310;28;19952;-52
2022/11/10 14:18:22;;;;;;;;;;;16.80;89.60;;;;;;5073182;28;19999;-51
2022/11/10 14:20:53;;;;;;;;;;;16.80;89.10;;;;;;5073133;28;19962;-53
2022/11/10 14:23:23;;;;;;;;;;;16.70;89.20;;;;;;5073305;28;19939;-52
2022/11/10 14:25:58;;;;;;;;;;;16.70;89.10;;;;;;5073211;28;19916;-52
2022/11/10 14:28:25;;;;;;;;;;;16.70;90.00;;;;;;5072912;28;19908;-50
2022/11/10 14:30:52;;;;;;;;;;;16.60;89.60;;;;;;5072038;28;20387;-49
2022/11/10 14:33:18;;;;;;;;;;;16.60;89.90;;;;;;5073455;28;20316;-53
2022/11/10 14:35:46;;;;;;;;;;;16.60;90.00;;;;;;5072454;28;19912;-50
2022/11/10 14:38:16;;;;;;;;;;;16.60;90.40;;;;;;5073046;28;19991;-50